createdAt,value
2022-12-28T00:02:16.304Z,4.00
2022-12-28T00:04:44.601Z,3.92
2022-12-28T00:07:12.730Z,3.83
2022-12-28T00:09:40.752Z,4.03
2022-12-28T00:12:08.929Z,3.85
2022-12-28T00:14:37.036Z,4.40
2022-12-28T00:17:05.088Z,3.55
2022-12-28T00:19:34.482Z,3.90
2022-12-28T00:22:02.531Z,4.13
2022-12-28T00:24:31.205Z,3.17
2022-12-28T00:26:59.307Z,4.22
2022-12-28T00:29:27.381Z,4.05
2022-12-28T00:31:56.269Z,4.05
2022-12-28T00:34:25.477Z,4.10
2022-12-28T00:37:09.482Z,4.17
2022-12-28T00:39:41.751Z,4.38
2022-12-28T00:42:10.013Z,3.83
2022-12-28T00:44:38.641Z,4.18
2022-12-28T00:47:06.824Z,4.30
2022-12-28T00:49:34.913Z,4.30
2022-12-28T00:52:04.522Z,4.10
2022-12-28T00:54:32.633Z,3.78
2022-12-28T00:57:00.696Z,4.50
2022-12-28T00:59:28.704Z,4.28
2022-12-28T01:01:56.942Z,4.05
2022-12-28T01:04:25.029Z,3.97
2022-12-28T01:06:53.111Z,4.80
2022-12-28T01:09:22.535Z,4.33
2022-12-28T01:11:50.585Z,4.50
2022-12-28T01:14:18.611Z,4.25
2022-12-28T01:16:48.008Z,4.30
2022-12-28T01:19:20.919Z,4.75
2022-12-28T01:21:50.305Z,4.55
2022-12-28T01:24:18.837Z,4.43
2022-12-28T01:26:48.286Z,4.72
2022-12-28T01:29:16.333Z,4.47
2022-12-28T01:31:44.409Z,4.82
2022-12-28T01:34:14.029Z,5.15
2022-12-28T01:36:42.078Z,4.28
2022-12-28T01:39:11.667Z,4.97
2022-12-28T01:41:42.152Z,5.03
2022-12-28T01:44:43.755Z,4.33
2022-12-28T01:47:23.271Z,4.15
2022-12-28T01:50:00.750Z,3.47
2022-12-28T01:52:33.661Z,4.00
2022-12-28T01:55:08.541Z,4.50
2022-12-28T01:57:41.679Z,4.07
2022-12-28T02:00:12.707Z,4.57
2022-12-28T02:02:47.895Z,4.60
2022-12-28T02:05:16.780Z,3.90
2022-12-28T02:07:52.720Z,4.22
2022-12-28T02:10:43.619Z,3.95
2022-12-28T02:13:11.080Z,4.50
2022-12-28T02:15:39.140Z,3.88
2022-12-28T02:18:08.791Z,4.00
2022-12-28T02:20:45.501Z,4.50
2022-12-28T02:23:48.115Z,3.90
2022-12-28T02:26:34.711Z,4.10
2022-12-28T02:29:41.231Z,4.30
2022-12-28T02:32:27.677Z,4.13
2022-12-28T02:35:02.911Z,4.20
2022-12-28T02:37:35.713Z,4.25
2022-12-28T02:40:08.495Z,4.05
2022-12-28T02:42:40.472Z,4.63
2022-12-28T02:45:27.746Z,4.03
2022-12-28T02:48:14.664Z,4.72
2022-12-28T02:50:51.556Z,4.70
2022-12-28T02:53:42.230Z,3.92
2022-12-28T02:56:22.775Z,3.88
2022-12-28T02:59:18.320Z,3.35
2022-12-28T03:02:13.902Z,4.00
2022-12-28T03:04:54.505Z,4.50
2022-12-28T03:07:46.185Z,4.88
2022-12-28T03:10:17.490Z,4.40
2022-12-28T03:12:51.280Z,4.97
2022-12-28T03:15:30.665Z,4.43
2022-12-28T03:18:21.350Z,4.00
2022-12-28T03:21:09.978Z,4.88
2022-12-28T03:23:58.856Z,4.60
2022-12-28T03:26:47.244Z,4.70
2022-12-28T03:29:36.071Z,4.60
2022-12-28T03:32:05.913Z,4.90
2022-12-28T03:34:35.056Z,4.70
2022-12-28T03:37:13.038Z,4.57
2022-12-28T03:39:45.567Z,4.70
2022-12-28T03:42:35.950Z,4.93
2022-12-28T03:45:10.762Z,4.40
2022-12-28T03:47:41.060Z,5.05
2022-12-28T03:50:09.974Z,5.33
2022-12-28T03:52:40.124Z,4.80
2022-12-28T03:55:08.900Z,3.85
2022-12-28T03:57:36.936Z,0.45
2022-12-28T04:00:10.862Z,0.28
2022-12-28T04:02:43.954Z,0.50
2022-12-28T04:05:12.609Z,0.10
2022-12-28T04:07:43.173Z,0.77
2022-12-28T04:10:12.450Z,0.00
2022-12-28T04:12:40.496Z,0.17
2022-12-28T04:15:20.771Z,0.10
2022-12-28T04:17:49.379Z,1.30
2022-12-28T04:20:18.239Z,0.20
2022-12-28T04:22:47.738Z,0.10
2022-12-28T04:25:15.930Z,0.50
2022-12-28T04:27:44.567Z,0.47
2022-12-28T04:30:32.134Z,0.13
2022-12-28T04:33:00.360Z,0.57
2022-12-28T04:35:29.276Z,0.10
2022-12-28T04:37:58.795Z,0.35
2022-12-28T04:40:26.828Z,0.10
2022-12-28T04:42:54.844Z,0.45
2022-12-28T04:45:22.881Z,0.40
2022-12-28T04:47:50.910Z,0.17
2022-12-28T04:50:19.313Z,0.70
2022-12-28T04:52:47.332Z,0.22
2022-12-28T04:55:32.665Z,0.50
2022-12-28T04:58:01.604Z,0.63
2022-12-28T05:00:29.725Z,0.05
2022-12-28T05:03:00.062Z,0.45
2022-12-28T05:05:28.637Z,0.32
2022-12-28T05:07:56.993Z,0.32
2022-12-28T05:10:26.432Z,0.25
2022-12-28T05:12:55.487Z,0.25
2022-12-28T05:15:23.959Z,0.20
2022-12-28T05:17:52.468Z,0.35
2022-12-28T05:20:20.672Z,0.17
2022-12-28T05:22:48.750Z,0.40
2022-12-28T05:25:16.927Z,0.35
2022-12-28T05:27:46.461Z,0.10
2022-12-28T05:30:14.593Z,0.08
2022-12-28T05:32:42.620Z,0.45
2022-12-28T05:35:11.167Z,0.10
2022-12-28T05:37:39.177Z,0.20
2022-12-28T05:40:08.409Z,0.13
2022-12-28T05:42:37.135Z,0.47
2022-12-28T05:45:07.885Z,0.20
2022-12-28T05:47:35.953Z,0.10
2022-12-28T05:50:03.963Z,0.20
2022-12-28T05:52:32.708Z,0.40
2022-12-28T05:55:00.763Z,0.35
2022-12-28T05:57:28.864Z,0.57
2022-12-28T05:59:56.918Z,0.17
2022-12-28T06:02:27.689Z,0.00
2022-12-28T06:04:55.950Z,0.00
2022-12-28T06:07:24.211Z,0.45
2022-12-28T06:09:52.306Z,0.30
2022-12-28T06:12:20.322Z,0.45
2022-12-28T06:14:48.389Z,0.30
2022-12-28T06:17:16.540Z,0.13
2022-12-28T06:19:45.925Z,0.00
2022-12-28T06:22:14.000Z,0.28
2022-12-28T06:24:42.000Z,0.20
2022-12-28T06:27:10.036Z,0.05
2022-12-28T06:29:38.064Z,0.10
2022-12-28T06:32:06.397Z,0.25
2022-12-28T06:34:34.582Z,0.32
2022-12-28T06:37:04.253Z,0.08
2022-12-28T06:39:32.286Z,0.17
2022-12-28T06:42:00.342Z,0.20
2022-12-28T06:44:28.410Z,0.20
2022-12-28T06:46:56.454Z,0.28
2022-12-28T06:49:24.472Z,0.13
2022-12-28T06:51:52.530Z,0.10
2022-12-28T06:54:21.949Z,0.52
2022-12-28T06:56:50.006Z,0.10
2022-12-28T06:59:18.060Z,0.08
2022-12-28T07:01:46.196Z,0.20
2022-12-28T07:04:14.391Z,0.45
2022-12-28T07:06:44.619Z,0.43
2022-12-28T07:09:14.466Z,0.63
2022-12-28T07:11:44.809Z,0.63
2022-12-28T07:14:12.990Z,0.20
2022-12-28T07:19:08.290Z,0.10
2022-12-28T07:21:40.561Z,0.20
2022-12-28T07:24:09.808Z,0.20
2022-12-28T07:26:38.986Z,0.10
2022-12-28T07:29:09.741Z,0.43
2022-12-28T07:31:44.897Z,0.17
2022-12-28T07:34:14.371Z,0.10
2022-12-28T07:36:42.594Z,0.10
2022-12-28T07:39:10.713Z,0.05
2022-12-28T07:41:38.987Z,0.05
2022-12-28T07:44:08.603Z,0.55
2022-12-28T07:46:38.432Z,0.22
2022-12-28T07:49:07.750Z,0.35
2022-12-28T07:51:37.566Z,0.28
2022-12-28T07:54:06.591Z,0.35
2022-12-28T07:59:04.560Z,0.20
2022-12-28T08:01:36.418Z,0.15
2022-12-28T08:04:06.268Z,0.10
2022-12-28T08:06:36.448Z,0.40
2022-12-28T08:09:06.553Z,0.60
2022-12-28T08:11:36.311Z,0.28
2022-12-28T08:14:05.054Z,0.10
2022-12-28T08:16:37.555Z,0.57
2022-12-28T08:19:06.603Z,0.40
2022-12-28T08:21:37.053Z,0.65
2022-12-28T08:24:06.009Z,0.57
2022-12-28T08:26:35.910Z,0.45
2022-12-28T08:29:06.395Z,0.90
2022-12-28T08:31:38.507Z,0.55
2022-12-28T08:34:08.130Z,0.22
2022-12-28T08:36:36.495Z,0.45
2022-12-28T08:39:04.858Z,0.73
2022-12-28T08:41:33.220Z,0.60
2022-12-28T08:44:01.316Z,0.55
2022-12-28T08:46:31.388Z,0.30
2022-12-28T08:49:01.839Z,0.10
2022-12-28T08:51:32.595Z,0.80
2022-12-28T08:54:01.376Z,0.45
2022-12-28T08:56:31.141Z,0.30
2022-12-28T08:58:59.997Z,0.20
2022-12-28T09:01:29.747Z,0.93
2022-12-28T09:04:01.260Z,1.00
2022-12-28T09:06:33.136Z,0.40
2022-12-28T09:09:06.053Z,0.17
2022-12-28T09:11:35.734Z,0.50
2022-12-28T09:14:04.378Z,0.22
2022-12-28T09:16:32.398Z,0.50
2022-12-28T09:19:03.365Z,0.40
2022-12-28T09:21:33.437Z,0.20
2022-12-28T09:24:01.525Z,0.28
2022-12-28T09:26:32.196Z,0.82
2022-12-28T09:29:02.160Z,0.03
2022-12-28T09:31:31.597Z,0.45
2022-12-28T09:36:49.777Z,0.25
2022-12-28T09:39:19.804Z,0.00
2022-12-28T09:41:53.628Z,0.65
2022-12-28T09:44:45.074Z,0.35
2022-12-28T09:47:21.615Z,0.15
2022-12-28T09:50:30.167Z,0.15
2022-12-28T09:53:22.650Z,0.38
2022-12-28T09:55:58.595Z,0.22
2022-12-28T09:58:26.915Z,0.20
2022-12-28T10:00:57.398Z,0.43
2022-12-28T10:03:28.915Z,0.30
2022-12-28T10:05:58.871Z,0.30
2022-12-28T10:08:28.595Z,0.20
2022-12-28T10:11:01.505Z,0.40
2022-12-28T10:16:27.765Z,1.13
2022-12-28T10:18:56.887Z,0.05
2022-12-28T10:21:32.762Z,0.30
2022-12-28T10:24:30.422Z,0.38
2022-12-28T10:26:50.425Z,0.15
2022-12-28T10:29:23.455Z,0.20
2022-12-28T10:32:00.433Z,0.38
2022-12-28T10:34:33.799Z,0.30
2022-12-28T10:37:14.587Z,0.22
2022-12-28T10:39:51.323Z,0.15
2022-12-28T10:42:24.191Z,0.28
2022-12-28T10:44:52.423Z,0.70
2022-12-28T10:47:31.399Z,0.10
2022-12-28T10:52:59.027Z,0.45
2022-12-28T10:55:33.175Z,0.10
2022-12-28T10:58:34.161Z,0.20
2022-12-28T11:01:05.651Z,0.32
2022-12-28T11:03:37.568Z,0.70
2022-12-28T11:06:10.812Z,0.68
2022-12-28T11:08:41.444Z,0.50
2022-12-28T11:11:19.962Z,0.28
2022-12-28T11:13:52.306Z,0.55
2022-12-28T11:16:21.168Z,0.57
2022-12-28T11:18:49.562Z,0.30
2022-12-28T11:21:21.236Z,0.40
2022-12-28T11:23:53.190Z,0.45
2022-12-28T11:26:22.420Z,0.70
2022-12-28T11:28:52.962Z,0.30
2022-12-28T11:31:26.086Z,0.13
2022-12-28T11:33:57.823Z,0.17
2022-12-28T11:36:27.848Z,0.28
2022-12-28T11:38:58.708Z,0.40
2022-12-28T11:41:56.375Z,0.20
2022-12-28T11:44:53.658Z,0.50
2022-12-28T11:47:31.204Z,0.08
2022-12-28T11:50:39.289Z,0.25
2022-12-28T11:53:22.854Z,0.25
2022-12-28T11:56:16.475Z,0.50
2022-12-28T11:58:47.284Z,0.05
2022-12-28T12:01:46.677Z,0.55
2022-12-28T12:04:39.726Z,0.25
2022-12-28T12:07:30.674Z,0.35
2022-12-28T12:10:16.212Z,0.10
2022-12-28T12:12:53.537Z,0.20
2022-12-28T12:15:26.471Z,0.13
2022-12-28T12:18:00.065Z,0.00
2022-12-28T12:20:44.155Z,0.10
2022-12-28T12:23:20.313Z,0.00
2022-12-28T12:25:54.178Z,0.25
2022-12-28T12:28:34.257Z,0.00
2022-12-28T12:31:04.089Z,0.17
2022-12-28T12:33:36.555Z,0.00
2022-12-28T12:36:15.257Z,0.20
2022-12-28T12:39:07.008Z,0.10
2022-12-28T12:41:42.795Z,0.03
2022-12-28T12:44:22.459Z,0.20
2022-12-28T12:47:18.936Z,0.00
2022-12-28T12:50:19.804Z,0.10
2022-12-28T12:52:59.578Z,0.03
2022-12-28T12:55:41.467Z,0.13
2022-12-28T12:58:20.308Z,0.55
2022-12-28T13:01:02.912Z,0.00
2022-12-28T13:03:39.620Z,0.47
2022-12-28T13:06:08.274Z,0.10
2022-12-28T13:08:41.085Z,0.10
2022-12-28T13:11:10.527Z,0.25
2022-12-28T13:13:42.133Z,0.17
2022-12-28T13:16:16.431Z,0.10
2022-12-28T13:18:54.848Z,0.20
2022-12-28T13:21:24.446Z,0.17
2022-12-28T13:23:53.365Z,0.40
2022-12-28T13:26:27.278Z,0.13
2022-12-28T13:28:59.479Z,0.20
2022-12-28T13:31:35.149Z,0.22
2022-12-28T13:34:05.599Z,0.10
2022-12-28T13:36:33.720Z,0.10
2022-12-28T13:39:05.428Z,0.08
2022-12-28T13:41:36.404Z,0.10
2022-12-28T13:44:29.995Z,0.00
2022-12-28T13:47:03.948Z,0.35
2022-12-28T13:49:36.985Z,0.05
2022-12-28T13:52:10.211Z,0.10
2022-12-28T13:54:39.610Z,0.15
2022-12-28T13:57:44.488Z,0.00
2022-12-28T13:59:57.546Z,0.20
2022-12-28T14:02:28.893Z,0.00
2022-12-28T14:04:57.212Z,0.20
2022-12-28T14:07:30.077Z,0.20
2022-12-28T14:09:58.786Z,0.28
2022-12-28T14:12:27.968Z,0.00
2022-12-28T14:14:56.689Z,0.00
2022-12-28T14:17:26.838Z,0.20
2022-12-28T14:19:57.706Z,0.10
2022-12-28T14:22:30.878Z,0.70
2022-12-28T14:25:00.871Z,0.15
2022-12-28T14:27:29.411Z,0.15
2022-12-28T14:29:58.254Z,0.20
2022-12-28T14:32:28.059Z,0.15
2022-12-28T14:35:00.384Z,0.17
2022-12-28T14:37:32.356Z,0.40
2022-12-28T14:40:03.092Z,0.47
2022-12-28T14:42:31.646Z,0.35
2022-12-28T14:45:25.285Z,0.20
2022-12-28T14:47:57.839Z,0.00
2022-12-28T14:50:27.585Z,0.05
2022-12-28T14:53:06.911Z,0.20
2022-12-28T14:55:38.917Z,0.22
2022-12-28T14:58:16.135Z,0.00
2022-12-28T15:00:57.645Z,0.20
2022-12-28T15:03:29.326Z,0.47
2022-12-28T15:05:59.545Z,0.10
2022-12-28T15:08:28.443Z,0.00
2022-12-28T15:10:58.553Z,0.30
2022-12-28T15:13:27.689Z,0.20
2022-12-28T15:15:57.742Z,0.15
2022-12-28T15:18:28.126Z,0.10
2022-12-28T15:20:56.513Z,0.40
2022-12-28T15:23:24.964Z,0.10
2022-12-28T15:25:53.031Z,0.40
2022-12-28T15:28:21.095Z,0.10
2022-12-28T15:30:49.124Z,0.40
2022-12-28T15:33:17.598Z,0.20
2022-12-28T15:35:47.008Z,0.22
2022-12-28T15:38:15.268Z,0.43
2022-12-28T15:40:43.346Z,0.20
2022-12-28T15:43:11.363Z,0.20
2022-12-28T15:45:39.425Z,0.47
2022-12-28T15:48:07.755Z,0.22
2022-12-28T15:50:35.814Z,0.32
2022-12-28T15:53:05.214Z,1.02
2022-12-28T15:55:33.920Z,0.30
2022-12-28T15:58:01.940Z,0.25
2022-12-28T16:00:30.151Z,0.32
2022-12-28T16:02:58.334Z,0.10
2022-12-28T16:05:26.541Z,0.30
2022-12-28T16:07:54.629Z,0.95
2022-12-28T16:10:24.098Z,0.50
2022-12-28T16:12:52.666Z,0.40
2022-12-28T16:15:20.744Z,0.10
2022-12-28T16:17:55.336Z,0.13
2022-12-28T16:20:25.388Z,1.00
2022-12-28T16:22:54.357Z,0.25
2022-12-28T16:25:23.796Z,0.57
2022-12-28T16:27:51.891Z,0.88
2022-12-28T16:30:20.171Z,0.28
2022-12-28T16:32:48.759Z,0.63
2022-12-28T16:35:16.909Z,0.30
2022-12-28T16:37:44.950Z,0.10
2022-12-28T16:40:13.277Z,0.52
2022-12-28T16:42:46.007Z,0.22
2022-12-28T16:45:14.340Z,0.17
2022-12-28T16:47:44.810Z,0.15
2022-12-28T16:50:13.270Z,0.20
2022-12-28T16:52:41.386Z,0.30
2022-12-28T16:55:09.990Z,0.10
2022-12-28T16:57:38.024Z,0.50
2022-12-28T17:00:09.090Z,0.45
2022-12-28T17:02:37.280Z,0.63
2022-12-28T17:05:06.034Z,0.17
2022-12-28T17:07:34.111Z,1.05
2022-12-28T17:10:02.240Z,1.17
2022-12-28T17:12:30.247Z,0.50
2022-12-28T17:15:03.217Z,0.50
2022-12-28T17:17:34.382Z,0.17
2022-12-28T17:20:02.468Z,0.43
2022-12-28T17:22:31.101Z,0.20
2022-12-28T17:24:59.194Z,0.40
2022-12-28T17:27:27.540Z,0.85
2022-12-28T17:29:55.608Z,0.28
2022-12-28T17:32:23.673Z,0.43
2022-12-28T17:34:53.315Z,0.75
2022-12-28T17:37:21.560Z,0.40
2022-12-28T17:39:49.691Z,0.50
2022-12-28T17:42:17.788Z,0.30
2022-12-28T17:44:48.503Z,0.30
2022-12-28T17:47:16.733Z,0.70
2022-12-28T17:49:44.907Z,0.08
2022-12-28T17:52:20.059Z,0.75
2022-12-28T17:54:49.037Z,0.80
2022-12-28T17:57:17.160Z,0.40
2022-12-28T17:59:45.228Z,0.10
2022-12-28T18:02:13.618Z,0.20
2022-12-28T18:04:41.975Z,0.38
2022-12-28T18:07:10.042Z,0.77
2022-12-28T18:09:42.321Z,0.57
2022-12-28T18:12:12.759Z,0.50
2022-12-28T18:14:40.780Z,0.10
2022-12-28T18:17:08.809Z,0.57
2022-12-28T18:19:36.965Z,0.73
2022-12-28T18:22:05.354Z,0.10
2022-12-28T18:24:33.783Z,0.63
2022-12-28T18:27:01.790Z,0.30
2022-12-28T18:29:31.363Z,0.40
2022-12-28T18:31:59.389Z,1.63
2022-12-28T18:34:27.664Z,0.10
2022-12-28T18:36:55.757Z,0.32
2022-12-28T18:39:23.879Z,0.80
2022-12-28T18:41:51.964Z,0.20
2022-12-28T18:44:19.962Z,0.28
2022-12-28T18:46:49.477Z,0.77
2022-12-28T18:49:17.773Z,0.03
2022-12-28T18:51:45.895Z,0.47
2022-12-28T18:54:14.009Z,0.40
2022-12-28T18:56:42.073Z,0.45
2022-12-28T18:59:10.336Z,0.38
2022-12-28T19:02:06.049Z,0.10
2022-12-28T19:04:30.090Z,0.10
2022-12-28T19:06:58.327Z,0.68
2022-12-28T19:09:26.378Z,0.10
2022-12-28T19:11:54.476Z,0.38
2022-12-28T19:14:22.491Z,0.77
2022-12-28T19:16:50.524Z,0.20
2022-12-28T19:19:19.021Z,1.20
2022-12-28T19:21:52.332Z,0.35
2022-12-28T19:24:23.123Z,0.43
2022-12-28T19:26:53.785Z,0.28
2022-12-28T19:29:21.890Z,0.40
2022-12-28T19:31:49.972Z,0.50
2022-12-28T19:34:18.222Z,0.57
2022-12-28T19:36:46.227Z,0.47
2022-12-28T19:39:15.806Z,0.55
2022-12-28T19:41:43.834Z,0.10
2022-12-28T19:44:11.916Z,0.30
2022-12-28T19:46:40.005Z,0.20
2022-12-28T19:49:08.163Z,0.22
2022-12-28T19:51:36.223Z,0.73
2022-12-28T19:54:04.344Z,0.68
2022-12-28T19:56:33.899Z,0.85
2022-12-28T19:59:06.620Z,0.63
2022-12-28T20:01:36.804Z,0.20
2022-12-28T20:04:12.309Z,0.30
2022-12-28T20:06:42.122Z,0.50
2022-12-28T20:09:10.282Z,0.40
2022-12-28T20:11:40.714Z,0.25
2022-12-28T20:14:09.040Z,0.10
2022-12-28T20:16:37.182Z,0.30
2022-12-28T20:19:07.045Z,0.35
2022-12-28T20:21:36.018Z,0.57
2022-12-28T20:24:04.752Z,0.10
2022-12-28T20:26:33.475Z,0.45
2022-12-28T20:29:03.842Z,0.75
2022-12-28T20:31:32.171Z,0.15
2022-12-28T20:34:00.270Z,0.43
2022-12-28T20:36:31.025Z,0.65
2022-12-28T20:38:59.066Z,0.30
2022-12-28T20:41:46.528Z,0.90
2022-12-28T20:44:17.909Z,0.38
2022-12-28T20:46:46.498Z,0.30
2022-12-28T20:49:14.723Z,0.52
2022-12-28T20:51:43.191Z,0.47
2022-12-28T20:54:11.717Z,0.40
2022-12-28T20:56:41.837Z,0.43
2022-12-28T20:59:10.957Z,0.30
2022-12-28T21:01:41.667Z,0.52
2022-12-28T21:04:10.833Z,0.00
2022-12-28T21:06:38.940Z,0.52
2022-12-28T21:09:07.004Z,0.47
2022-12-28T21:11:35.048Z,0.20
2022-12-28T21:14:03.128Z,0.15
2022-12-28T21:16:31.252Z,0.00
2022-12-28T21:19:00.752Z,0.08
2022-12-28T21:21:28.792Z,0.40
2022-12-28T21:23:56.857Z,0.20
2022-12-28T21:26:25.715Z,0.30
2022-12-28T21:28:53.805Z,0.10
2022-12-28T21:31:21.978Z,0.17
2022-12-28T21:33:50.097Z,0.10
2022-12-28T21:36:20.364Z,0.25
2022-12-28T21:38:50.239Z,0.30
2022-12-28T21:41:40.483Z,0.20
2022-12-28T21:44:09.768Z,0.20
2022-12-28T21:46:38.131Z,0.00
2022-12-28T21:49:06.717Z,0.30
2022-12-28T21:51:37.518Z,0.10
2022-12-28T21:54:10.620Z,0.25
2022-12-28T21:56:39.288Z,0.00
2022-12-28T21:59:07.932Z,0.43
2022-12-28T22:01:54.542Z,0.47
2022-12-28T22:04:41.975Z,0.35
2022-12-28T22:07:15.177Z,0.10
2022-12-28T22:10:00.947Z,0.13
2022-12-28T22:12:38.476Z,0.30
2022-12-28T22:15:31.288Z,0.30
2022-12-28T22:18:00.872Z,0.17
2022-12-28T22:20:30.460Z,0.25
2022-12-28T22:23:02.271Z,0.73
2022-12-28T22:25:31.638Z,0.45
2022-12-28T22:28:00.579Z,0.20
2022-12-28T22:30:30.033Z,0.68
2022-12-28T22:32:58.342Z,0.13
2022-12-28T22:35:26.585Z,0.15
2022-12-28T22:37:54.752Z,0.22
2022-12-28T22:40:24.245Z,0.20
2022-12-28T22:42:52.478Z,0.00
2022-12-28T22:45:22.441Z,0.10
2022-12-28T22:47:54.115Z,0.20
2022-12-28T22:50:22.587Z,0.20
2022-12-28T22:52:50.647Z,0.20
2022-12-28T22:55:19.161Z,0.13
2022-12-28T22:57:48.535Z,0.17
2022-12-28T23:00:16.780Z,0.00
2022-12-28T23:02:45.077Z,0.30
2022-12-28T23:05:13.308Z,0.13
2022-12-28T23:07:41.343Z,0.13
2022-12-28T23:10:10.614Z,0.52
2022-12-28T23:12:38.684Z,0.30
2022-12-28T23:15:19.780Z,0.20
2022-12-28T23:17:49.131Z,0.40
2022-12-28T23:20:34.957Z,0.28
2022-12-28T23:23:20.312Z,0.32
2022-12-28T23:26:05.637Z,0.47
2022-12-28T23:28:36.005Z,0.20
2022-12-28T23:31:06.075Z,0.63
2022-12-28T23:33:34.284Z,0.22
2022-12-28T23:36:03.573Z,0.40
2022-12-28T23:38:32.662Z,0.57
2022-12-28T23:41:14.701Z,0.10
2022-12-28T23:43:42.811Z,0.17
2022-12-28T23:46:12.250Z,0.20
2022-12-28T23:48:40.297Z,0.52
2022-12-28T23:51:09.033Z,0.47
2022-12-28T23:53:37.359Z,0.32
2022-12-28T23:56:05.763Z,0.15
2022-12-28T23:58:33.844Z,0.55
